Station Historical Data
Daily Summary for July 14, 2017 Units:  Metric    English   Both
« Previous Day
Next Day »
Daily Weekly Monthly Yearly Custom
  High: Low: Average:
Temperature: 26.9 °C 19.3 °C 22.9 °C
Dew Point: 21.9 °C 15.5 °C 19.5 °C
Humidity: 93% 62% 81%
Wind Speed: 22.5km/h 0km/h 6.3km/h
Wind Gust: 30.6km/h - -
Wind- - WSW
Pressure: 1014.4 hPa 1012.8 hPa -
Precipitation: 0 mm    
Historical Graphs
 
 
Tabular Data for July 14, 2017
Time Temperature Dew Point Pressure Wind Wind Speed Wind Gust Humidity Rainfall Rate (Hourly)
00:04 20.4 °C 18.7 °C 1013.4 hPa ENE 1.6 km/h 8 km/h 90% 0 mm
00:09 20.3 °C 18.6 °C 1013.4 hPa Calm   4.8 km/h 90% 0 mm
00:14 20.3 °C 18.6 °C 1013.4 hPa East 1.6 km/h 8 km/h 90% 0 mm
00:19 20.3 °C 18.6 °C 1013.4 hPa East 1.6 km/h 8 km/h 90% 0 mm
00:24 20.3 °C 18.6 °C 1013.4 hPa East 3.2 km/h 4.8 km/h 90% 0 mm
00:29 20.2 °C 18.6 °C 1013.4 hPa East 1.6 km/h 4.8 km/h 90% 0 mm
00:34 20.2 °C 18.7 °C 1013.4 hPa East 1.6 km/h 4.8 km/h 91% 0 mm
00:39 20.2 °C 18.7 °C 1013.4 hPa East 1.6 km/h 8 km/h 91% 0 mm
00:44 20.2 °C 18.7 °C 1013.4 hPa Calm   3.2 km/h 91% 0 mm
00:49 20.1 °C 18.6 °C 1013.4 hPa Calm   4.8 km/h 91% 0 mm
00:54 20.1 °C 18.6 °C 1013.4 hPa Calm     91% 0 mm
00:59 20.1 °C 18.6 °C 1013.4 hPa Calm     91% 0 mm
01:04 20.1 °C 18.6 °C 1013.4 hPa Calm   3.2 km/h 91% 0 mm
01:09 20.1 °C 18.6 °C 1013.4 hPa Calm     91% 0 mm
01:14 20.1 °C 18.6 °C 1013.4 hPa Calm     91% 0 mm
01:19 20.1 °C 18.6 °C 1013.4 hPa Calm     91% 0 mm
01:24 20.1 °C 18.6 °C 1013.4 hPa Calm     91% 0 mm
01:29 20.2 °C 18.9 °C 1013.4 hPa Calm     92% 0 mm
01:34 20.3 °C 18.9 °C 1013.4 hPa Calm     92% 0 mm
01:39 20.4 °C 19.1 °C 1013.4 hPa Calm     92% 0 mm
01:44 20.4 °C 18.9 °C 1013.4 hPa Calm     91% 0 mm
01:49 20.4 °C 19.1 °C 1013.4 hPa Calm     92% 0 mm
01:54 20.5 °C 19.2 °C 1013.4 hPa Calm     92% 0 mm
01:59 20.6 °C 19.2 °C 1013.4 hPa Calm     92% 0 mm
02:04 20.6 °C 19.1 °C 1013.4 hPa Calm   4.8 km/h 91% 0 mm
02:09 20.5 °C 19 °C 1013.4 hPa Calm     91% 0 mm
02:14 20.4 °C 18.9 °C 1013.4 hPa Calm     91% 0 mm
02:19 20.3 °C 18.8 °C 1013.4 hPa Calm     91% 0 mm
02:24 20.3 °C 18.8 °C 1013.4 hPa Calm     91% 0 mm
02:29 20.3 °C 18.8 °C 1013.4 hPa Calm     91% 0 mm
02:34 20.3 °C 18.8 °C 1013.1 hPa Calm     91% 0 mm
02:39 20.3 °C 18.8 °C 1013.1 hPa Calm     91% 0 mm
02:44 20.4 °C 18.9 °C 1013.1 hPa Calm     91% 0 mm
02:49 20.4 °C 18.9 °C 1013.1 hPa Calm     91% 0 mm
02:54 20.5 °C 19 °C 1013.1 hPa Calm     91% 0 mm
02:59 20.5 °C 19 °C 1013.1 hPa Calm     91% 0 mm
03:04 20.6 °C 19.1 °C 1013.1 hPa Calm     91% 0 mm
03:09 20.6 °C 19.1 °C 1012.8 hPa Calm     91% 0 mm
03:14 20.7 °C 18.9 °C 1012.8 hPa Calm     90% 0 mm
03:19 20.8 °C 19.1 °C 1012.8 hPa Calm     90% 0 mm
03:24 20.8 °C 19.1 °C 1012.8 hPa Calm     90% 0 mm
03:29 20.8 °C 19.1 °C 1012.8 hPa Calm     90% 0 mm
03:34 20.8 °C 19.1 °C 1012.8 hPa Calm     90% 0 mm
03:39 20.8 °C 19.1 °C 1012.8 hPa Calm     90% 0 mm
03:44 20.8 °C 19.1 °C 1012.8 hPa Calm     90% 0 mm
03:49 20.8 °C 19.1 °C 1012.8 hPa Calm     90% 0 mm
03:54 20.9 °C 19.2 °C 1012.8 hPa Calm     90% 0 mm
03:59 21 °C 19.3 °C 1013.1 hPa Calm     90% 0 mm
04:04 21 °C 19.3 °C 1013.1 hPa Calm     90% 0 mm
04:09 21.1 °C 19.3 °C 1013.1 hPa Calm     90% 0 mm
04:14 21.1 °C 19.3 °C 1013.1 hPa Calm     90% 0 mm
04:19 21.1 °C 19.3 °C 1013.1 hPa Calm     90% 0 mm
04:24 21.1 °C 19.4 °C 1013.1 hPa Calm     90% 0 mm
04:29 21.2 °C 19.4 °C 1013.1 hPa Calm     90% 0 mm
04:34 21.2 °C 19.5 °C 1013.1 hPa Calm     90% 0 mm
04:39 21.2 °C 19.5 °C 1013.1 hPa Calm     90% 0 mm
04:44 21.3 °C 19.6 °C 1013.1 hPa Calm     90% 0 mm
04:49 21.5 °C 19.8 °C 1013.1 hPa Calm     90% 0 mm
04:54 21.6 °C 19.8 °C 1013.1 hPa Calm     90% 0 mm
04:59 21.7 °C 20.1 °C 1013.1 hPa Calm     91% 0 mm
05:04 21.8 °C 20.2 °C 1013.1 hPa Calm   3.2 km/h 91% 0 mm
05:09 21.8 °C 20.3 °C 1013.1 hPa Calm     91% 0 mm
05:14 21.9 °C 20.3 °C 1013.4 hPa Calm     91% 0 mm
05:19 21.9 °C 20.4 °C 1013.4 hPa East 1.6 km/h 3.2 km/h 91% 0 mm
05:24 22 °C 20.4 °C 1013.4 hPa SSW 1.6 km/h 4.8 km/h 91% 0 mm
05:29 22.1 °C 20.7 °C 1013.4 hPa SW 3.2 km/h 6.4 km/h 92% 0 mm
05:34 22.2 °C 20.8 °C 1013.4 hPa WSW 3.2 km/h 6.4 km/h 92% 0 mm
05:39 22.2 °C 20.8 °C 1013.4 hPa Calm   6.4 km/h 92% 0 mm
05:44 22.2 °C 20.8 °C 1013.4 hPa West 1.6 km/h 8 km/h 92% 0 mm
05:49 22.2 °C 20.8 °C 1013.4 hPa WSW 3.2 km/h 8 km/h 92% 0 mm
05:54 22.2 °C 20.8 °C 1013.1 hPa SW 3.2 km/h 4.8 km/h 92% 0 mm
05:59 22.2 °C 20.8 °C 1013.1 hPa SW 3.2 km/h 6.4 km/h 92% 0 mm
06:04 22.1 °C 20.7 °C 1013.1 hPa SW 3.2 km/h 8 km/h 92% 0 mm
06:09 22.1 °C 20.7 °C 1013.1 hPa SW 3.2 km/h 8 km/h 92% 0 mm
06:14 22.1 °C 20.7 °C 1013.1 hPa SW 3.2 km/h 9.7 km/h 92% 0 mm
06:19 22.1 °C 20.7 °C 1013.4 hPa SW 3.2 km/h 9.7 km/h 92% 0 mm
06:24 22 °C 20.8 °C 1013.4 hPa WSW 1.6 km/h 6.4 km/h 93% 0 mm
06:29 22.1 °C 20.9 °C 1013.4 hPa WSW 3.2 km/h 6.4 km/h 93% 0 mm
06:34 22.1 °C 20.9 °C 1013.4 hPa SW 3.2 km/h 8 km/h 93% 0 mm
06:39 22.1 °C 20.9 °C 1013.4 hPa WSW 3.2 km/h 8 km/h 93% 0 mm
06:44 22.2 °C 21 °C 1013.4 hPa Calm   8 km/h 93% 0 mm
06:49 22.2 °C 21 °C 1013.4 hPa WSW 1.6 km/h 6.4 km/h 93% 0 mm
06:54 22.3 °C 21.1 °C 1013.1 hPa SW 8 km/h 9.7 km/h 93% 0 mm
06:59 22.3 °C 21.1 °C 1013.1 hPa SW 4.8 km/h 9.7 km/h 93% 0 mm
07:04 22.3 °C 21.2 °C 1013.1 hPa WSW 3.2 km/h 9.7 km/h 93% 0 mm
07:09 22.4 °C 21.2 °C 1013.4 hPa WSW 3.2 km/h 6.4 km/h 93% 0 mm
07:14 22.4 °C 21.1 °C 1013.1 hPa WSW 3.2 km/h 8 km/h 92% 0 mm
07:19 22.4 °C 21.1 °C 1013.1 hPa WSW 3.2 km/h 8 km/h 92% 0 mm
07:24 22.6 °C 21.2 °C 1013.4 hPa SW 6.4 km/h 8 km/h 92% 0 mm
07:29 22.7 °C 21.3 °C 1013.4 hPa WSW 4.8 km/h 8 km/h 92% 0 mm
07:34 22.7 °C 21.3 °C 1013.4 hPa SW 6.4 km/h 9.7 km/h 92% 0 mm
07:39 22.8 °C 21.4 °C 1013.4 hPa SSW 4.8 km/h 9.7 km/h 92% 0 mm
07:44 22.9 °C 21.5 °C 1013.4 hPa SW 9.7 km/h 9.7 km/h 92% 0 mm
07:49 22.9 °C 21.6 °C 1013.4 hPa SW 6.4 km/h 11.3 km/h 92% 0 mm
07:54 22.9 °C 21.4 °C 1013.4 hPa WSW 1.6 km/h 9.7 km/h 91% 0 mm
07:59 22.9 °C 21.4 °C 1013.4 hPa SW 4.8 km/h 9.7 km/h 91% 0 mm
08:04 22.9 °C 21.4 °C 1013.4 hPa WSW 6.4 km/h 12.9 km/h 91% 0 mm
08:09 23.1 °C 21.5 °C 1013.4 hPa WSW 8 km/h 12.9 km/h 91% 0 mm
08:14 23.2 °C 21.6 °C 1013.1 hPa WSW 4.8 km/h 12.9 km/h 91% 0 mm
08:19 23.4 °C 21.9 °C 1013.1 hPa West 8 km/h 12.9 km/h 91% 0 mm
08:24 23.7 °C 21.9 °C 1013.1 hPa WSW 6.4 km/h 16.1 km/h 90% 0 mm
08:29 23.8 °C 21.8 °C 1013.1 hPa SW 6.4 km/h 16.1 km/h 89% 0 mm
08:34 23.8 °C 21.7 °C 1013.1 hPa SW 6.4 km/h 19.3 km/h 88% 0 mm
08:39 23.8 °C 21.7 °C 1013.4 hPa WSW 6.4 km/h 19.3 km/h 88% 0 mm
08:44 23.8 °C 21.7 °C 1013.4 hPa WSW 8 km/h 19.3 km/h 88% 0 mm
08:49 23.9 °C 21.6 °C 1013.1 hPa WSW 6.4 km/h 17.7 km/h 87% 0 mm
08:54 24.2 °C 21.9 °C 1013.1 hPa SW 8 km/h 17.7 km/h 87% 0 mm
08:59 24.2 °C 21.9 °C 1013.1 hPa WNW 6.4 km/h 14.5 km/h 87% 0 mm
09:04 24.2 °C 21.7 °C 1013.4 hPa West 8 km/h 14.5 km/h 86% 0 mm
09:09 23.9 °C 21.3 °C 1013.4 hPa SW 11.3 km/h 20.9 km/h 85% 0 mm
09:14 24 °C 21.5 °C 1013.4 hPa West 4.8 km/h 17.7 km/h 86% 0 mm
09:19 23.9 °C 21.3 °C 1013.4 hPa SW 6.4 km/h 20.9 km/h 85% 0 mm
09:24 24.1 °C 21.6 °C 1013.4 hPa WSW 8 km/h 20.9 km/h 86% 0 mm
09:29 24.3 °C 21.6 °C 1013.4 hPa WSW 6.4 km/h 16.1 km/h 85% 0 mm
09:34 24.2 °C 21.3 °C 1013.4 hPa WSW 8 km/h 22.5 km/h 84% 0 mm
09:39 24.4 °C 21.3 °C 1013.4 hPa WSW 9.7 km/h 22.5 km/h 83% 0 mm
09:44 24.5 °C 21.2 °C 1013.4 hPa WSW 9.7 km/h 20.9 km/h 82% 0 mm
09:49 24.4 °C 21.1 °C 1013.4 hPa SW 6.4 km/h 17.7 km/h 82% 0 mm
09:54 24.4 °C 21.1 °C 1013.4 hPa WSW 8 km/h 17.7 km/h 82% 0 mm
09:59 24.4 °C 20.9 °C 1013.4 hPa WSW 9.7 km/h 19.3 km/h 81% 0 mm
10:04 24.6 °C 20.9 °C 1013.4 hPa WNW 9.7 km/h 24.1 km/h 80% 0 mm
10:09 24.4 °C 20.9 °C 1013.4 hPa WSW 11.3 km/h 24.1 km/h 81% 0 mm
10:14 24.5 °C 21.2 °C 1013.4 hPa WSW 8 km/h 24.1 km/h 82% 0 mm
10:19 24.6 °C 21.1 °C 1013.4 hPa South 19.3 km/h 20.9 km/h 81% 0 mm
10:24 24.5 °C 21.2 °C 1013.4 hPa WSW 9.7 km/h 20.9 km/h 82% 0 mm
10:29 24.7 °C 21.2 °C 1013.4 hPa South 12.9 km/h 19.3 km/h 81% 0 mm
10:34 24.8 °C 21.3 °C 1013.4 hPa SW 4.8 km/h 24.1 km/h 81% 0 mm
10:39 25.1 °C 21.4 °C 1013.4 hPa West 6.4 km/h 22.5 km/h 80% 0 mm
10:44 24.9 °C 21.1 °C 1013.8 hPa WNW 14.5 km/h 19.3 km/h 79% 0 mm
10:49 24.3 °C 20.7 °C 1013.4 hPa SSW 12.9 km/h 22.5 km/h 80% 0 mm
10:54 23.9 °C 20.7 °C 1013.4 hPa WSW 12.9 km/h 22.5 km/h 82% 0 mm
10:59 23.8 °C 20.8 °C 1013.4 hPa WSW 11.3 km/h 24.1 km/h 83% 0 mm
11:04 24.1 °C 20.8 °C 1013.4 hPa WSW 12.9 km/h 25.7 km/h 82% 0 mm
11:09 24.5 °C 21.2 °C 1013.4 hPa WSW 11.3 km/h 25.7 km/h 82% 0 mm
11:14 24.6 °C 21.1 °C 1013.8 hPa WSW 17.7 km/h 20.9 km/h 81% 0 mm
11:19 24.4 °C 21.4 °C 1013.8 hPa WNW 9.7 km/h 24.1 km/h 83% 0 mm
11:24 24.8 °C 21.2 °C 1013.8 hPa WSW 11.3 km/h 25.7 km/h 80% 0 mm
11:29 24.4 °C 20.8 °C 1013.8 hPa WSW 11.3 km/h 22.5 km/h 80% 0 mm
11:34 24.1 °C 20.8 °C 1013.8 hPa WNW 9.7 km/h 16.1 km/h 82% 0 mm
11:39 23.8 °C 20.7 °C 1013.8 hPa SW 6.4 km/h 19.3 km/h 83% 0 mm
11:44 23.9 °C 20.7 °C 1013.8 hPa West 6.4 km/h 20.9 km/h 82% 0 mm
11:49 24.1 °C 21.1 °C 1013.8 hPa WSW 8 km/h 19.3 km/h 83% 0 mm
11:54 24.3 °C 21.1 °C 1013.4 hPa WSW 12.9 km/h 24.1 km/h 82% 0 mm
11:59 24.5 °C 21 °C 1013.4 hPa SW 11.3 km/h 24.1 km/h 81% 0 mm
12:04 24.6 °C 21.1 °C 1013.8 hPa WSW 12.9 km/h 24.1 km/h 81% 0 mm
12:09 24.4 °C 20.9 °C 1013.8 hPa WSW 12.9 km/h 24.1 km/h 81% 0 mm
12:14 24.6 °C 20.9 °C 1013.4 hPa WSW 9.7 km/h 25.7 km/h 80% 0 mm
12:19 24.6 °C 20.4 °C 1013.4 hPa West 8 km/h 24.1 km/h 78% 0 mm
12:24 24.7 °C 21 °C 1013.8 hPa SW 6.4 km/h 24.1 km/h 80% 0 mm
12:29 24.8 °C 20.9 °C 1013.8 hPa WSW 12.9 km/h 24.1 km/h 79% 0 mm
12:34 25.2 °C 21.1 °C 1013.8 hPa WSW 9.7 km/h 24.1 km/h 78% 0 mm
12:39 25.5 °C 20.9 °C 1013.8 hPa West 12.9 km/h 27.4 km/h 76% 0 mm
12:44 25.3 °C 20.8 °C 1013.8 hPa WSW 16.1 km/h 25.7 km/h 76% 0 mm
12:49 25.4 °C 21.1 °C 1013.4 hPa WSW 14.5 km/h 20.9 km/h 77% 0 mm
12:54 25.9 °C 20.9 °C 1013.4 hPa WSW 14.5 km/h 20.9 km/h 74% 0 mm
12:59 26.3 °C 21.7 °C 1013.4 hPa WSW 11.3 km/h 24.1 km/h 76% 0 mm
13:04 26 °C 21 °C 1013.4 hPa SW 11.3 km/h 24.1 km/h 74% 0 mm
13:09 25.6 °C 20.4 °C 1013.4 hPa SW 12.9 km/h 24.1 km/h 73% 0 mm
13:14 25.8 °C 21 °C 1013.4 hPa WSW 11.3 km/h 25.7 km/h 75% 0 mm
13:19 26 °C 20.8 °C 1013.4 hPa SW 11.3 km/h 25.7 km/h 73% 0 mm
13:24 26 °C 21.2 °C 1013.4 hPa West 12.9 km/h 24.1 km/h 75% 0 mm
13:29 25.8 °C 21.1 °C 1013.4 hPa SW 19.3 km/h 22.5 km/h 75% 0 mm
13:34 25.9 °C 20.7 °C 1013.4 hPa West 19.3 km/h 27.4 km/h 73% 0 mm
13:39 26.3 °C 20.6 °C 1013.4 hPa WSW 14.5 km/h 22.5 km/h 71% 0 mm
13:44 26.3 °C 20.4 °C 1013.4 hPa SW 19.3 km/h 25.7 km/h 70% 0 mm
13:49 26.4 °C 21.2 °C 1013.4 hPa SW 8 km/h 24.1 km/h 73% 0 mm
13:54 26.4 °C 20.3 °C 1013.4 hPa WSW 8 km/h 20.9 km/h 69% 0 mm
13:59 26.7 °C 20.9 °C 1013.4 hPa WSW 12.9 km/h 27.4 km/h 71% 0 mm
14:04 26.7 °C 20.5 °C 1013.4 hPa WSW 12.9 km/h 27.4 km/h 69% 0 mm
14:09 26.7 °C 20.3 °C 1013.4 hPa WSW 12.9 km/h 25.7 km/h 68% 0 mm
14:14 26.8 °C 20.8 °C 1013.4 hPa WSW 12.9 km/h 29 km/h 70% 0 mm
14:19 26.5 °C 20.1 °C 1013.4 hPa South 17.7 km/h 29 km/h 68% 0 mm
14:24 26.6 °C 20.4 °C 1013.4 hPa SSW 8 km/h 22.5 km/h 69% 0 mm
14:29 26.6 °C 20.4 °C 1013.4 hPa SW 11.3 km/h 22.5 km/h 69% 0 mm
14:34 25.9 °C 20.3 °C 1013.4 hPa SW 12.9 km/h 25.7 km/h 71% 0 mm
14:39 25.8 °C 19.7 °C 1013.4 hPa SW 12.9 km/h 25.7 km/h 69% 0 mm
14:44 25.3 °C 19.9 °C 1013.4 hPa WSW 8 km/h 22.5 km/h 72% 0 mm
14:49 25.1 °C 18.9 °C 1013.4 hPa SSW 17.7 km/h 25.7 km/h 69% 0 mm
14:54 24.9 °C 19.8 °C 1013.4 hPa WNW 11.3 km/h 19.3 km/h 73% 0 mm
14:59 25.4 °C 20.4 °C 1013.1 hPa West 8 km/h 19.3 km/h 74% 0 mm
15:04 26.3 °C 20.4 °C 1013.1 hPa West 6.4 km/h 20.9 km/h 70% 0 mm
15:09 26.4 °C 20 °C 1013.1 hPa SW 11.3 km/h 20.9 km/h 68% 0 mm
15:14 25.8 °C 19.9 °C 1013.1 hPa SW 8 km/h 16.1 km/h 70% 0 mm
15:19 25.8 °C 20.1 °C 1013.1 hPa SW 19.3 km/h 22.5 km/h 71% 0 mm
15:24 26.1 °C 20.2 °C 1013.1 hPa SW 6.4 km/h 19.3 km/h 70% 0 mm
15:29 26.1 °C 18.9 °C 1013.1 hPa SW 9.7 km/h 19.3 km/h 65% 0 mm
15:34 26.9 °C 20.1 °C 1013.1 hPa WSW 11.3 km/h 22.5 km/h 66% 0 mm
15:39 26.7 °C 18.8 °C 1013.1 hPa West 11.3 km/h 19.3 km/h 62% 0 mm
15:44 26.7 °C 19.1 °C 1013.1 hPa WSW 11.3 km/h 27.4 km/h 63% 0 mm
15:49 26.1 °C 18.5 °C 1013.1 hPa WSW 12.9 km/h 27.4 km/h 63% 0 mm
15:54 25.8 °C 19 °C 1013.1 hPa SW 9.7 km/h 17.7 km/h 66% 0 mm
15:59 25.7 °C 18.8 °C 1013.1 hPa WSW 9.7 km/h 19.3 km/h 66% 0 mm
16:04 25.4 °C 19.1 °C 1013.1 hPa SSW 11.3 km/h 19.3 km/h 68% 0 mm
16:09 25.7 °C 19.3 °C 1013.1 hPa West 6.4 km/h 17.7 km/h 68% 0 mm
16:14 26.3 °C 19.4 °C 1013.1 hPa West 12.9 km/h 19.3 km/h 66% 0 mm
16:19 26.1 °C 19.3 °C 1013.1 hPa WSW 11.3 km/h 22.5 km/h 66% 0 mm
16:24 25.6 °C 19 °C 1013.1 hPa WNW 14.5 km/h 17.7 km/h 67% 0 mm
16:29 25.2 °C 18.8 °C 1013.1 hPa WSW 11.3 km/h 27.4 km/h 68% 0 mm
16:34 25.1 °C 19.2 °C 1013.1 hPa WSW 12.9 km/h 27.4 km/h 70% 0 mm
16:39 24.8 °C 19.2 °C 1013.1 hPa WSW 12.9 km/h 27.4 km/h 71% 0 mm
16:44 24.9 °C 19.8 °C 1013.1 hPa WSW 11.3 km/h 27.4 km/h 73% 0 mm
16:49 25.4 °C 20 °C 1013.1 hPa SW 8 km/h 19.3 km/h 72% 0 mm
16:54 25.4 °C 20 °C 1013.1 hPa WNW 12.9 km/h 22.5 km/h 72% 0 mm
16:59 25.2 °C 20.1 °C 1013.1 hPa SW 11.3 km/h 22.5 km/h 73% 0 mm
17:04 25 °C 20.1 °C 1013.1 hPa WSW 8 km/h 22.5 km/h 74% 0 mm
17:09 24.8 °C 19.9 °C 1013.1 hPa West 12.9 km/h 22.5 km/h 74% 0 mm
17:14 24.7 °C 20 °C 1013.1 hPa West 14.5 km/h 24.1 km/h 75% 0 mm
17:19 24.8 °C 20.1 °C 1013.1 hPa SW 9.7 km/h 22.5 km/h 75% 0 mm
17:24 25.1 °C 20.2 °C 1013.1 hPa WSW 11.3 km/h 22.5 km/h 74% 0 mm
17:29 24.9 °C 20 °C 1013.1 hPa WSW 11.3 km/h 25.7 km/h 74% 0 mm
17:34 25 °C 19.8 °C 1013.1 hPa WSW 11.3 km/h 30.6 km/h 73% 0 mm
17:39 24.7 °C 19.1 °C 1013.1 hPa SW 9.7 km/h 30.6 km/h 71% 0 mm
17:44 24.4 °C 19.4 °C 1013.1 hPa WSW 11.3 km/h 24.1 km/h 74% 0 mm
17:49 24.3 °C 19.6 °C 1013.1 hPa SW 17.7 km/h 19.3 km/h 75% 0 mm
17:54 24.2 °C 19.7 °C 1013.1 hPa WSW 9.7 km/h 24.1 km/h 76% 0 mm
17:59 24.2 °C 19.9 °C 1013.1 hPa WSW 9.7 km/h 24.1 km/h 77% 0 mm
18:04 24.3 °C 19.8 °C 1013.1 hPa WSW 9.7 km/h 19.3 km/h 76% 0 mm
18:09 24.4 °C 19.9 °C 1013.1 hPa WSW 11.3 km/h 27.4 km/h 76% 0 mm
18:14 24.1 °C 19.6 °C 1013.1 hPa WSW 12.9 km/h 27.4 km/h 76% 0 mm
18:19 24.2 °C 19.4 °C 1013.1 hPa WSW 11.3 km/h 27.4 km/h 75% 0 mm
18:24 23.9 °C 19.4 °C 1013.1 hPa WSW 12.9 km/h 30.6 km/h 76% 0 mm
18:29 23.8 °C 19.5 °C 1013.1 hPa WSW 11.3 km/h 24.1 km/h 77% 0 mm
18:34 23.9 °C 19.6 °C 1013.1 hPa SSW 11.3 km/h 22.5 km/h 77% 0 mm
18:39 23.7 °C 19.4 °C 1013.1 hPa WNW 22.5 km/h 22.5 km/h 77% 0 mm
18:44 23.7 °C 19.4 °C 1013.1 hPa SSW 14.5 km/h 22.5 km/h 77% 0 mm
18:49 23.8 °C 19.7 °C 1013.1 hPa WSW 17.7 km/h 25.7 km/h 78% 0 mm
18:54 23.9 °C 19.6 °C 1013.1 hPa WSW 11.3 km/h 25.7 km/h 77% 0 mm
18:59 23.9 °C 19.6 °C 1013.1 hPa WSW 9.7 km/h 19.3 km/h 77% 0 mm
19:04 23.8 °C 19.8 °C 1013.1 hPa WSW 9.7 km/h 19.3 km/h 78% 0 mm
19:09 23.7 °C 19.6 °C 1013.1 hPa WSW 11.3 km/h 20.9 km/h 78% 0 mm
19:14 23.6 °C 19.6 °C 1013.1 hPa WSW 11.3 km/h 20.9 km/h 78% 0 mm
19:19 23.3 °C 19.5 °C 1013.1 hPa WSW 14.5 km/h 20.9 km/h 79% 0 mm
19:24 23.2 °C 19.5 °C 1013.1 hPa SW 8 km/h 24.1 km/h 80% 0 mm
19:29 23.1 °C 19.4 °C 1013.1 hPa SW 16.1 km/h 24.1 km/h 80% 0 mm
19:34 23.1 °C 19.6 °C 1013.1 hPa SW 6.4 km/h 17.7 km/h 81% 0 mm
19:39 23.1 °C 19.6 °C 1013.1 hPa West 6.4 km/h 20.9 km/h 81% 0 mm
19:44 23 °C 19.6 °C 1013.4 hPa WSW 16.1 km/h 19.3 km/h 81% 0 mm
19:49 23 °C 19.8 °C 1013.4 hPa WNW 3.2 km/h 19.3 km/h 82% 0 mm
19:54 22.4 °C 17.9 °C 1013.4 hPa West 8 km/h 19.3 km/h 76% 0 mm
19:59 22 °C 17.4 °C 1013.8 hPa NW 6.4 km/h 19.3 km/h 75% 0 mm
20:04 21.9 °C 17.5 °C 1013.8 hPa NW 4.8 km/h 14.5 km/h 76% 0 mm
20:09 22.1 °C 17.4 °C 1013.4 hPa NNW 1.6 km/h 8 km/h 75% 0 mm
20:14 22.1 °C 17.4 °C 1013.8 hPa NW 3.2 km/h 8 km/h 75% 0 mm
20:19 22.1 °C 17.4 °C 1013.8 hPa Calm   8 km/h 75% 0 mm
20:24 22.1 °C 17.4 °C 1013.8 hPa WNW 3.2 km/h 9.7 km/h 75% 0 mm
20:29 22.2 °C 17.3 °C 1013.4 hPa NW 3.2 km/h 9.7 km/h 74% 0 mm
20:34 22.1 °C 17.3 °C 1013.4 hPa WNW 3.2 km/h 8 km/h 74% 0 mm
20:39 22.1 °C 17.1 °C 1013.4 hPa WNW 1.6 km/h 14.5 km/h 73% 0 mm
20:44 22.1 °C 17 °C 1013.4 hPa WNW 6.4 km/h 8 km/h 73% 0 mm
20:49 21.9 °C 17.1 °C 1013.4 hPa West 4.8 km/h 11.3 km/h 74% 0 mm
20:54 21.9 °C 16.8 °C 1013.8 hPa WNW 3.2 km/h 11.3 km/h 73% 0 mm
20:59 21.9 °C 16.8 °C 1013.8 hPa WNW 3.2 km/h 11.3 km/h 73% 0 mm
21:04 21.9 °C 16.8 °C 1013.8 hPa WNW 3.2 km/h 8 km/h 73% 0 mm
21:09 21.9 °C 16.6 °C 1013.8 hPa WNW 4.8 km/h 8 km/h 72% 0 mm
21:14 21.9 °C 16.6 °C 1013.8 hPa WNW 3.2 km/h 8 km/h 72% 0 mm
21:19 21.9 °C 16.6 °C 1013.8 hPa WNW 3.2 km/h 8 km/h 72% 0 mm
21:24 21.8 °C 16.3 °C 1013.8 hPa Calm   6.4 km/h 71% 0 mm
21:29 21.6 °C 16.3 °C 1013.8 hPa Calm   3.2 km/h 72% 0 mm
21:34 21.5 °C 16.4 °C 1013.8 hPa WNW 3.2 km/h 4.8 km/h 73% 0 mm
21:39 21.5 °C 16.2 °C 1013.8 hPa West 3.2 km/h 8 km/h 72% 0 mm
21:44 21.5 °C 16.2 °C 1014.1 hPa West 6.4 km/h 8 km/h 72% 0 mm
21:49 21.4 °C 16.2 °C 1014.1 hPa WNW 1.6 km/h 6.4 km/h 72% 0 mm
21:54 21.4 °C 15.9 °C 1014.1 hPa West 3.2 km/h 8 km/h 71% 0 mm
21:59 21.4 °C 15.9 °C 1014.1 hPa WNW 3.2 km/h 8 km/h 71% 0 mm
22:04 21.3 °C 15.8 °C 1014.4 hPa West 3.2 km/h 8 km/h 71% 0 mm
22:09 21.2 °C 15.8 °C 1014.1 hPa West 3.2 km/h 6.4 km/h 71% 0 mm
22:14 21.1 °C 15.8 °C 1014.1 hPa West 3.2 km/h 6.4 km/h 72% 0 mm
22:19 20.9 °C 15.7 °C 1014.1 hPa Calm   1.6 km/h 72% 0 mm
22:24 20.7 °C 15.7 °C 1014.1 hPa Calm     73% 0 mm
22:29 20.5 °C 15.7 °C 1014.1 hPa Calm     74% 0 mm
22:34 20.3 °C 15.6 °C 1014.4 hPa Calm     74% 0 mm
22:39 20.2 °C 15.6 °C 1014.1 hPa Calm     75% 0 mm
22:44 20.1 °C 15.7 °C 1014.4 hPa Calm     76% 0 mm
22:49 20.1 °C 15.7 °C 1014.1 hPa Calm   4.8 km/h 76% 0 mm
22:54 20.1 °C 15.7 °C 1014.4 hPa WNW 6.4 km/h 8 km/h 76% 0 mm
22:59 20.1 °C 15.7 °C 1014.4 hPa NW 1.6 km/h 8 km/h 76% 0 mm
23:04 20.1 °C 15.7 °C 1014.4 hPa WNW 1.6 km/h 6.4 km/h 76% 0 mm
23:09 20.1 °C 15.7 °C 1014.4 hPa NW 1.6 km/h 4.8 km/h 76% 0 mm
23:14 19.9 °C 15.6 °C 1014.4 hPa NW 1.6 km/h 6.4 km/h 76% 0 mm
23:19 19.9 °C 15.6 °C 1014.1 hPa NW 3.2 km/h 6.4 km/h 76% 0 mm
23:24 19.8 °C 15.6 °C 1014.4 hPa WNW 1.6 km/h 6.4 km/h 77% 0 mm
23:29 19.7 °C 15.5 °C 1014.1 hPa Calm   3.2 km/h 77% 0 mm
23:39 19.6 °C 15.6 °C 1014.4 hPa Calm   3.2 km/h 78% 0 mm
23:44 19.6 °C 15.7 °C 1014.1 hPa NNW 1.6 km/h 6.4 km/h 78% 0 mm
23:49 19.5 °C 15.6 °C 1014.4 hPa Calm   3.2 km/h 78% 0 mm
23:54 19.3 °C 15.6 °C 1014.4 hPa WNW 1.6 km/h 4.8 km/h 79% 0 mm
23:59 19.3 °C 15.6 °C 1014.1 hPa Calm   4.8 km/h 79% 0 mm
Buffalo, New York, USA
Compliments of Weather Underground - 2.5 mb